Time;durP1;ratioP1;P1;durP2;ratioP2;P2;SDS_P1;SDS_P2;PMS_P1;PMS_P2;Temp;Humidity;BMP_temperature;BMP_pressure;BME280_temperature;BME280_humidity;BME280_pressure;Samples;Min_cycle;Max_cycle;Signal;HPM_P1;HPM_P2
2023/10/13 00:02:07;;;;;;;9.88;8.82;;;17.10;99.90;;;;;;4983198;28;20030;-92
2023/10/13 00:04:35;;;;;;;14.10;9.38;;;17.00;99.90;;;;;;4978705;28;20091;-90
2023/10/13 00:07:02;;;;;;;10.75;8.75;;;17.00;99.90;;;;;;4945519;29;20341;-91
2023/10/13 00:09:38;;;;;;;9.60;8.55;;;16.90;99.90;;;;;;4979712;28;20026;-90
2023/10/13 00:12:13;;;;;;;11.25;7.78;;;16.90;99.90;;;;;;4980228;28;20218;-89
2023/10/13 00:14:41;;;;;;;10.77;9.02;;;16.90;99.90;;;;;;4980344;28;20111;-90
2023/10/13 00:17:07;;;;;;;11.27;8.85;;;16.90;99.90;;;;;;4979885;28;20111;-89
2023/10/13 00:19:45;;;;;;;12.20;9.02;;;16.90;99.90;;;;;;4980870;28;20023;-93
2023/10/13 00:22:12;;;;;;;9.43;6.63;;;17.00;99.90;;;;;;4980653;28;20090;-88
2023/10/13 00:24:45;;;;;;;11.20;9.90;;;17.00;99.90;;;;;;4979730;28;20516;-89
2023/10/13 00:27:30;;;;;;;13.18;9.10;;;17.10;99.90;;;;;;4981066;28;20031;-89
2023/10/13 00:30:21;;;;;;;;;;;;;;;;;;;;;
2023/10/13 00:32:56;;;;;;;11.70;8.13;;;17.10;99.90;;;;;;4981217;28;20038;-90
2023/10/13 00:35:36;;;;;;;11.65;8.05;;;17.20;99.70;;;;;;4997328;28;20022;-91
2023/10/13 00:38:16;;;;;;;13.75;9.80;;;17.20;98.20;;;;;;4981839;28;20058;-90
2023/10/13 00:40:43;;;;;;;;;;;17.20;98.20;;;;;;4982055;28;20027;-90
2023/10/13 00:45:57;;;;;;;10.15;8.70;;;17.30;96.40;;;;;;4982598;28;20098;-92
2023/10/13 00:48:32;;;;;;;10.23;8.23;;;17.30;96.20;;;;;;4981348;28;20031;-89
2023/10/13 00:51:02;;;;;;;9.80;8.43;;;17.30;97.30;;;;;;4978705;28;20023;-91
2023/10/13 00:53:33;;;;;;;13.02;8.18;;;17.30;96.90;;;;;;4980337;28;20058;-90
2023/10/13 00:56:06;;;;;;;11.25;8.02;;;17.20;96.50;;;;;;4982661;28;20152;-90
2023/10/13 00:58:33;;;;;;;14.23;8.10;;;17.10;96.70;;;;;;4982010;28;20037;-89
2023/10/13 01:01:17;;;;;;;10.18;7.43;;;17.10;96.80;;;;;;4981673;28;20018;-90
2023/10/13 01:03:50;;;;;;;9.00;7.43;;;17.20;96.40;;;;;;4981908;28;20027;-91
2023/10/13 01:06:18;;;;;;;11.63;7.80;;;17.20;95.50;;;;;;4981753;28;20027;-90
2023/10/13 01:08:50;;;;;;;9.02;7.28;;;17.10;94.40;;;;;;4979064;28;20022;-93
2023/10/13 01:11:19;;;;;;;9.38;8.48;;;17.20;95.10;;;;;;4979923;28;20023;-91
2023/10/13 01:13:51;;;;;;;10.45;6.43;;;17.10;94.50;;;;;;4980358;28;20035;-91
2023/10/13 01:16:17;;;;;;;11.05;7.50;;;17.10;93.70;;;;;;4978334;28;20111;-91
2023/10/13 01:18:49;;;;;;;7.18;5.18;;;17.10;93.40;;;;;;4978995;28;20405;-91
2023/10/13 01:21:20;;;;;;;10.43;7.32;;;17.10;93.30;;;;;;4979535;28;20031;-91
2023/10/13 01:23:47;;;;;;;7.95;6.90;;;17.10;93.40;;;;;;4981757;28;20613;-91
2023/10/13 01:26:23;;;;;;;8.95;6.70;;;17.00;92.80;;;;;;4982251;28;20098;-89
2023/10/13 01:28:50;;;;;;;7.57;6.22;;;17.00;92.70;;;;;;4980028;28;20166;-91
2023/10/13 01:31:27;;;;;;;7.63;6.25;;;17.00;92.60;;;;;;4981442;28;20019;-91
2023/10/13 01:33:54;;;;;;;8.93;7.20;;;17.00;91.60;;;;;;4981378;28;20019;-90
2023/10/13 01:36:23;;;;;;;6.38;5.75;;;17.00;92.00;;;;;;4983561;28;20393;-92
2023/10/13 01:38:53;;;;;;;9.45;7.60;;;17.10;91.90;;;;;;4981205;28;20026;-89
2023/10/13 01:41:20;;;;;;;7.93;6.30;;;17.00;87.60;;;;;;4982148;28;20034;-91
2023/10/13 01:43:46;;;;;;;;;;;17.10;88.20;;;;;;4976107;28;20042;-91
2023/10/13 01:46:21;;;;;;;8.57;5.35;;;17.10;86.80;;;;;;4981935;28;19913;-90
2023/10/13 01:48:47;;;;;;;7.13;5.65;;;17.10;87.00;;;;;;4978299;28;20048;-95
2023/10/13 01:51:13;;;;;;;7.93;5.15;;;17.20;86.30;;;;;;4979592;28;20030;-91
2023/10/13 01:53:39;;;;;;;7.43;6.55;;;17.30;82.60;;;;;;4980060;28;20019;-88
2023/10/13 01:56:10;;;;;;;7.10;4.50;;;17.40;81.90;;;;;;4980458;28;20029;-91
2023/10/13 01:58:42;;;;;;;6.28;4.63;;;17.40;79.70;;;;;;4978811;28;20580;-91
2023/10/13 02:01:10;;;;;;;6.90;5.35;;;17.50;78.40;;;;;;4980997;28;20114;-90
2023/10/13 02:03:45;;;;;;;9.00;5.45;;;17.70;78.00;;;;;;4980737;28;20058;-90
2023/10/13 02:06:16;;;;;;;6.28;5.20;;;17.80;75.50;;;;;;4979661;28;20023;-90
2023/10/13 02:08:43;;;;;;;6.20;5.38;;;17.80;74.60;;;;;;4980058;28;20050;-92
2023/10/13 02:11:09;;;;;;;5.70;5.07;;;18.00;73.50;;;;;;4983184;28;20023;-91
2023/10/13 02:13:41;;;;;;;6.47;5.63;;;18.00;73.40;;;;;;4984510;28;20098;-93
2023/10/13 02:16:07;;;;;;;8.85;5.07;;;18.00;74.00;;;;;;4996020;28;20083;-92
2023/10/13 02:18:43;;;;;;;6.65;5.03;;;18.00;73.90;;;;;;4995503;28;20022;-93
2023/10/13 02:21:15;;;;;;;5.82;5.20;;;18.00;73.80;;;;;;4996951;28;20025;-92
2023/10/13 02:23:45;;;;;;;6.45;5.53;;;18.00;74.30;;;;;;4989854;28;20007;-91
2023/10/13 02:26:16;;;;;;;9.20;4.95;;;18.00;74.80;;;;;;4985396;28;20058;-91
2023/10/13 02:28:51;;;;;;;8.82;5.40;;;18.00;74.70;;;;;;4979649;28;20023;-90
2023/10/13 02:31:19;;;;;;;10.07;5.95;;;18.00;74.30;;;;;;4981083;28;20034;-90
2023/10/13 02:33:44;;;;;;;7.63;6.97;;;17.90;74.20;;;;;;4981127;28;20102;-91
2023/10/13 02:36:12;;;;;;;4.82;4.35;;;17.80;74.60;;;;;;4980880;28;20026;-91
2023/10/13 02:41:07;;;;;;;5.15;4.45;;;17.70;76.10;;;;;;4976107;28;19906;-90
2023/10/13 02:43:34;;;;;;;6.13;4.85;;;17.70;77.30;;;;;;4980609;28;20031;-91
2023/10/13 02:46:00;;;;;;;6.20;4.40;;;17.60;77.50;;;;;;4983984;28;20039;-88
2023/10/13 02:48:30;;;;;;;6.75;5.55;;;17.50;79.00;;;;;;4978341;28;20050;-91
2023/10/13 02:51:05;;;;;;;6.40;5.22;;;17.50;80.40;;;;;;4975095;28;20022;-90
2023/10/13 02:53:31;;;;;;;5.68;5.03;;;17.40;80.70;;;;;;4980007;28;20030;-91
2023/10/13 02:55:58;;;;;;;5.82;5.22;;;17.40;80.30;;;;;;4980119;28;20031;-91
2023/10/13 02:58:37;;;;;;;6.20;4.93;;;17.20;80.20;;;;;;4979629;28;20404;-90
2023/10/13 03:01:16;;;;;;;7.65;5.50;;;17.20;81.00;;;;;;4979508;28;20030;-88
2023/10/13 03:03:54;;;;;;;6.93;4.65;;;17.10;83.40;;;;;;4979981;28;20029;-91
2023/10/13 03:06:23;;;;;;;7.07;6.13;;;17.00;84.00;;;;;;4979110;28;20029;-89
2023/10/13 03:08:49;;;;;;;6.93;4.97;;;17.00;84.10;;;;;;4994196;28;20564;-91
2023/10/13 03:11:17;;;;;;;5.65;5.15;;;16.90;85.30;;;;;;4979786;28;20034;-89
2023/10/13 03:13:44;;;;;;;6.35;5.85;;;16.90;85.40;;;;;;4982788;28;20083;-91
2023/10/13 03:16:16;;;;;;;5.88;5.05;;;16.90;85.10;;;;;;4984564;28;20027;-90
2023/10/13 03:18:53;;;;;;;6.53;5.57;;;16.80;86.70;;;;;;4982715;28;20045;-91
2023/10/13 03:21:30;;;;;;;6.28;5.10;;;16.80;88.20;;;;;;4984425;28;20167;-90
2023/10/13 03:24:04;;;;;;;6.07;5.57;;;16.70;89.70;;;;;;4984720;28;20227;-91
2023/10/13 03:26:34;;;;;;;6.32;5.53;;;16.60;91.00;;;;;;4986745;28;20023;-90
2023/10/13 03:29:02;;;;;;;8.13;4.97;;;16.50;91.80;;;;;;4986000;28;20053;-91
2023/10/13 03:31:29;;;;;;;6.13;5.63;;;16.40;91.80;;;;;;4994181;28;20071;-90
2023/10/13 03:33:59;;;;;;;8.52;7.30;;;16.30;91.30;;;;;;4995032;28;20013;-90
2023/10/13 03:39:11;;;;;;;8.18;6.93;;;16.30;91.60;;;;;;4985024;28;20034;-90
2023/10/13 03:41:39;;;;;;;6.45;5.82;;;16.20;91.20;;;;;;4982861;28;20022;-91
2023/10/13 03:44:23;;;;;;;6.45;5.40;;;16.10;91.60;;;;;;4982766;28;20026;-89
2023/10/13 03:46:48;;;;;;;8.73;5.68;;;16.10;92.80;;;;;;4974348;28;20057;-91
2023/10/13 03:49:25;;;;;;;5.60;5.05;;;16.10;92.80;;;;;;4983414;28;20027;-90
2023/10/13 03:51:54;;;;;;;7.30;6.47;;;16.00;92.60;;;;;;4976250;28;20015;-90
2023/10/13 03:54:20;;;;;;;7.15;6.32;;;15.90;92.30;;;;;;4982220;28;20019;-92
2023/10/13 03:56:45;;;;;;;7.47;4.13;;;15.90;93.30;;;;;;4997331;28;20303;-89
2023/10/13 04:04:11;;;;;;;6.70;6.07;;;15.80;93.80;;;;;;4976918;28;20027;-90
2023/10/13 04:17:27;;;;;;;7.10;6.15;;;15.90;90.90;;;;;;4981655;28;20034;-91
2023/10/13 04:36:36;;;;;;;10.18;7.60;;;15.60;93.00;;;;;;4986505;28;20668;-91
2023/10/13 04:41:39;;;;;;;9.32;5.85;;;15.50;93.80;;;;;;4982111;28;20031;-91
2023/10/13 04:49:28;;;;;;;18.05;7.35;;;15.40;93.90;;;;;;4982235;28;20033;-90
2023/10/13 04:51:59;;;;;;;6.63;4.85;;;15.30;93.90;;;;;;4976216;28;20023;-91
2023/10/13 04:54:53;;;;;;;7.18;5.68;;;15.30;93.40;;;;;;4980328;28;20039;-89
2023/10/13 04:57:34;;;;;;;6.15;5.55;;;15.40;93.10;;;;;;4973390;28;20043;-91
2023/10/13 05:46:48;;;;;;;8.45;5.35;;;14.70;98.80;;;;;;4967785;28;20029;-90
2023/10/13 06:30:38;;;;;;;7.55;6.18;;;14.50;99.90;;;;;;4968460;28;20211;-89
2023/10/13 06:33:04;;;;;;;6.57;5.13;;;14.50;99.90;;;;;;4977396;28;20107;-90
2023/10/13 06:35:31;;;;;;;10.13;5.28;;;14.60;99.90;;;;;;4977534;28;20018;-90
2023/10/13 06:38:00;;;;;;;7.82;5.97;;;14.60;99.80;;;;;;4991789;28;20027;-91
2023/10/13 06:40:32;;;;;;;;;;;;;;;;;;;;;
2023/10/13 06:43:11;;;;;;;6.45;5.28;;;14.60;99.90;;;;;;4978321;28;20039;-89
2023/10/13 06:45:37;;;;;;;7.68;5.00;;;14.60;99.90;;;;;;4977580;28;20027;-89
2023/10/13 06:48:04;;;;;;;5.85;3.45;;;14.60;99.90;;;;;;4978071;28;20397;-90
2023/10/13 06:50:39;;;;;;;6.65;5.03;;;14.70;99.90;;;;;;4979800;28;20046;-89
2023/10/13 06:53:05;;;;;;;7.63;5.18;;;14.80;99.90;;;;;;4980137;28;20030;-91
2023/10/13 06:55:35;;;;;;;7.72;5.60;;;14.80;99.60;;;;;;4980111;28;20085;-90
2023/10/13 06:58:01;;;;;;;9.00;5.60;;;14.90;99.40;;;;;;4987085;28;20038;-91
2023/10/13 07:00:29;;;;;;;9.05;5.53;;;14.90;99.10;;;;;;4981808;28;20113;-89
2023/10/13 07:03:17;;;;;;;6.70;6.03;;;15.00;99.10;;;;;;4980525;28;20023;-91
2023/10/13 07:05:44;;;;;;;6.63;5.20;;;15.00;98.90;;;;;;4972947;28;20029;-89
2023/10/13 07:08:14;;;;;;;6.10;4.88;;;15.00;98.80;;;;;;4980700;28;20118;-90
2023/10/13 07:11:08;;;;;;;8.27;4.68;;;15.10;98.40;;;;;;4980711;28;20393;-91
2023/10/13 07:13:38;;;;;;;9.23;5.20;;;15.20;97.90;;;;;;4980423;28;20019;-90
2023/10/13 07:16:13;;;;;;;9.73;6.15;;;15.30;97.50;;;;;;4981819;28;20022;-91
2023/10/13 07:18:49;;;;;;;8.98;6.88;;;15.40;97.30;;;;;;4981017;28;20483;-91
2023/10/13 07:21:16;;;;;;;13.25;6.75;;;15.50;97.40;;;;;;4975288;28;20287;-90
2023/10/13 07:23:49;;;;;;;7.65;6.03;;;15.60;97.00;;;;;;4981005;28;20093;-91
2023/10/13 07:26:15;;;;;;;10.13;5.70;;;15.60;97.00;;;;;;4981364;28;20038;-90
2023/10/13 07:28:43;;;;;;;11.15;5.47;;;15.70;96.50;;;;;;4987693;28;20027;-91
2023/10/13 07:31:15;;;;;;;9.30;6.03;;;15.80;96.90;;;;;;4980868;28;20019;-90
2023/10/13 07:33:41;;;;;;;10.63;6.70;;;15.90;96.40;;;;;;4969901;28;20019;-90
2023/10/13 07:36:27;;;;;;;7.03;5.15;;;16.00;96.30;;;;;;4979054;28;20082;-90
2023/10/13 07:39:20;;;;;;;8.07;6.55;;;16.10;96.10;;;;;;4967436;28;20034;-91
2023/10/13 07:41:51;;;;;;;8.50;5.95;;;16.20;94.80;;;;;;4980998;28;20858;-91
2023/10/13 07:44:19;;;;;;;7.32;4.30;;;16.30;93.50;;;;;;4979851;28;20497;-91
2023/10/13 07:46:53;;;;;;;7.53;5.60;;;16.50;92.60;;;;;;4980522;28;20041;-92
2023/10/13 07:49:30;;;;;;;11.60;5.15;;;16.60;91.20;;;;;;4979485;28;20509;-90
2023/10/13 07:52:03;;;;;;;5.80;4.43;;;16.80;90.30;;;;;;4980202;28;20033;-92
2023/10/13 07:54:29;;;;;;;5.53;4.82;;;16.80;89.00;;;;;;4980738;28;20015;-90
2023/10/13 07:56:55;;;;;;;7.63;4.97;;;17.00;89.40;;;;;;4980924;28;20050;-90
2023/10/13 07:59:22;;;;;;;7.70;5.03;;;17.10;88.40;;;;;;4981278;28;20019;-90
2023/10/13 08:02:11;;;;;;;5.75;5.15;;;17.20;85.30;;;;;;4982968;28;20026;-91
2023/10/13 08:04:36;;;;;;;6.72;5.03;;;17.40;85.50;;;;;;4982774;28;20086;-91
2023/10/13 08:07:12;;;;;;;6.25;5.57;;;17.60;82.50;;;;;;4982467;28;20035;-93
2023/10/13 08:09:43;;;;;;;8.13;5.50;;;17.80;80.70;;;;;;4983325;28;20023;-90
2023/10/13 08:12:11;;;;;;;6.13;5.53;;;18.00;80.10;;;;;;4983405;28;20029;-90
2023/10/13 08:14:41;;;;;;;8.50;5.72;;;18.20;77.90;;;;;;4996720;28;20022;-92
2023/10/13 08:17:11;;;;;;;7.15;4.93;;;18.30;79.20;;;;;;4984985;28;20146;-90
2023/10/13 08:19:41;;;;;;;6.45;3.90;;;18.30;78.20;;;;;;4971556;28;20103;-92
2023/10/13 08:45:54;;;;;;;8.50;4.22;;;19.60;69.40;;;;;;4978797;28;20118;-92
2023/10/13 08:53:28;;;;;;;;;;;;;;;;;;;;;
2023/10/13 08:58:59;;;;;;;7.10;4.05;;;20.40;64.90;;;;;;4979897;28;20081;-90
2023/10/13 09:01:34;;;;;;;4.60;3.53;;;20.70;63.20;;;;;;4965551;28;20130;-91
2023/10/13 09:06:46;;;;;;;6.15;3.13;;;21.20;59.70;;;;;;4980708;28;20027;-88
2023/10/13 09:09:26;;;;;;;4.03;3.10;;;21.40;59.00;;;;;;4972583;28;20038;-92
2023/10/13 09:12:08;;;;;;;6.05;3.15;;;21.60;53.70;;;;;;4979808;28;20338;-90
2023/10/13 09:14:42;;;;;;;6.70;2.88;;;21.80;52.90;;;;;;4971938;28;20030;-91
2023/10/13 09:17:12;;;;;;;4.70;3.22;;;22.20;49.50;;;;;;4979470;28;20031;-90
2023/10/13 09:19:48;;;;;;;4.63;3.53;;;22.40;48.70;;;;;;4979494;28;20074;-92
2023/10/13 09:22:36;;;;;;;4.43;3.00;;;22.60;46.80;;;;;;4979796;28;20019;-90
2023/10/13 09:25:04;;;;;;;7.55;3.22;;;22.80;46.80;;;;;;4976806;28;20030;-91
2023/10/13 09:27:37;;;;;;;6.18;3.47;;;22.90;45.90;;;;;;4982105;28;20038;-90
2023/10/13 09:30:20;;;;;;;6.05;3.17;;;23.00;44.00;;;;;;4981708;28;20094;-90
2023/10/13 09:32:51;;;;;;;6.82;3.10;;;23.10;44.60;;;;;;4978624;28;20049;-93
2023/10/13 09:35:23;;;;;;;6.68;2.95;;;23.30;45.00;;;;;;4978170;28;20031;-91
2023/10/13 09:37:50;;;;;;;8.82;3.85;;;23.50;43.40;;;;;;4975685;28;20047;-89
2023/10/13 09:43:04;;;;;;;4.13;3.13;;;23.70;42.90;;;;;;4976800;28;20605;-89
2023/10/13 09:45:43;;;;;;;5.43;3.30;;;23.80;39.60;;;;;;4978138;28;20572;-91
2023/10/13 09:48:21;;;;;;;8.52;3.28;;;24.00;40.90;;;;;;4970230;28;20020;-88
2023/10/13 09:50:48;;;;;;;7.65;2.60;;;24.20;41.20;;;;;;4971734;28;20398;-90
2023/10/13 09:53:18;;;;;;;;;;;24.30;39.40;;;;;;4979516;28;20099;-90
2023/10/13 09:56:13;;;;;;;4.75;3.17;;;24.40;39.20;;;;;;4979233;28;19906;-91
2023/10/13 09:59:00;;;;;;;4.75;2.55;;;24.50;38.20;;;;;;4980916;28;20560;-90
2023/10/13 10:01:31;;;;;;;4.30;3.13;;;24.60;38.30;;;;;;4979489;28;20034;-90
2023/10/13 10:04:08;;;;;;;5.68;2.70;;;24.70;38.70;;;;;;4978127;28;20033;-91
2023/10/13 10:06:39;;;;;;;5.32;2.60;;;25.00;37.60;;;;;;4977560;28;20078;-90
2023/10/13 10:09:12;;;;;;;4.38;3.65;;;25.10;36.70;;;;;;4976534;28;20023;-91
2023/10/13 10:11:54;;;;;;;;;;;25.30;37.40;;;;;;4970620;28;20505;-90
2023/10/13 10:14:28;;;;;;;6.75;2.72;;;25.40;36.60;;;;;;4977134;28;19943;-91
2023/10/13 10:17:08;;;;;;;4.38;2.30;;;25.60;37.40;;;;;;4972540;28;20378;-89
2023/10/13 10:19:45;;;;;;;6.65;3.00;;;25.60;35.20;;;;;;4975837;28;20034;-90
2023/10/13 10:22:17;;;;;;;6.95;2.85;;;25.90;35.70;;;;;;4976764;28;20030;-90
2023/10/13 10:24:43;;;;;;;5.40;2.38;;;26.10;35.20;;;;;;4978039;28;20073;-91
2023/10/13 10:27:14;;;;;;;6.18;3.03;;;26.00;34.00;;;;;;4977365;28;20093;-89
2023/10/13 10:29:52;;;;;;;2.60;2.28;;;26.10;33.60;;;;;;4978810;28;20027;-91
2023/10/13 10:32:18;;;;;;;7.22;3.15;;;26.20;33.50;;;;;;4982045;28;20030;-91
2023/10/13 10:34:44;;;;;;;6.22;3.22;;;26.40;33.20;;;;;;4979581;28;20034;-92
2023/10/13 10:37:12;;;;;;;4.43;2.10;;;26.50;32.20;;;;;;4976338;28;20039;-91
2023/10/13 10:39:49;;;;;;;7.38;3.08;;;26.70;31.90;;;;;;4986674;28;20019;-92
2023/10/13 10:42:15;;;;;;;6.15;2.60;;;26.60;31.60;;;;;;4991461;28;20127;-91
2023/10/13 10:44:44;;;;;;;4.43;3.00;;;26.70;31.10;;;;;;4990933;28;20035;-91
2023/10/13 10:47:32;;;;;;;8.35;2.22;;;27.00;31.70;;;;;;4986100;28;20134;-92
2023/10/13 10:50:00;;;;;;;4.13;3.00;;;27.10;31.10;;;;;;4976399;28;20023;-90
2023/10/13 10:52:27;;;;;;;3.65;2.50;;;27.10;31.20;;;;;;4978793;28;20011;-90
2023/10/13 10:55:00;;;;;;;5.75;2.60;;;26.90;30.00;;;;;;4979193;28;20030;-91
2023/10/13 10:57:37;;;;;;;4.60;2.58;;;27.10;31.40;;;;;;4976175;28;20050;-89
2023/10/13 11:00:11;;;;;;;6.03;2.17;;;27.00;30.90;;;;;;4982369;28;20058;-92
2023/10/13 11:02:39;;;;;;;4.32;2.20;;;27.30;31.30;;;;;;4988918;28;20034;-91
2023/10/13 11:05:06;;;;;;;5.28;2.67;;;27.60;31.80;;;;;;4987026;28;20027;-93
2023/10/13 11:07:34;;;;;;;5.47;2.25;;;27.50;30.90;;;;;;4975046;28;20527;-92
2023/10/13 11:10:20;;;;;;;5.63;2.85;;;27.50;32.70;;;;;;4977384;28;20023;-90
2023/10/13 11:13:13;;;;;;;;;;;27.70;31.90;;;;;;4977231;28;20031;-93
2023/10/13 11:15:45;;;;;;;4.72;2.33;;;28.00;32.30;;;;;;4982853;28;19928;-92
2023/10/13 11:18:21;;;;;;;3.33;1.70;;;28.10;31.80;;;;;;4977469;28;20398;-90
2023/10/13 11:20:49;;;;;;;5.10;3.22;;;28.20;30.70;;;;;;4978139;28;20625;-91
2023/10/13 11:23:15;;;;;;;6.38;2.30;;;27.90;30.20;;;;;;4968913;28;20046;-91
2023/10/13 11:25:44;;;;;;;3.85;2.53;;;28.00;31.40;;;;;;4977841;28;20481;-89
2023/10/13 11:28:10;;;;;;;6.22;2.22;;;28.10;30.40;;;;;;4977788;28;20035;-91
2023/10/13 11:33:06;;;;;;;3.83;1.95;;;28.40;31.30;;;;;;4978858;28;20301;-93
2023/10/13 11:35:57;;;;;;;5.22;2.25;;;28.90;30.30;;;;;;4980517;28;20027;-93
2023/10/13 11:38:51;;;;;;;6.25;2.13;;;29.20;29.70;;;;;;4979886;28;20037;-91
2023/10/13 11:41:18;;;;;;;5.00;2.45;;;29.30;29.60;;;;;;4982110;28;20042;-91
2023/10/13 11:49:34;;;;;;;5.78;3.10;;;29.20;28.50;;;;;;4983409;28;20026;-91
2023/10/13 11:51:51;;;;;;;5.30;2.35;;;29.40;28.70;;;;;;4979961;28;20528;-92
2023/10/13 11:54:21;;;;;;;6.13;2.60;;;29.60;28.60;;;;;;4981160;28;20027;-90
2023/10/13 11:56:48;;;;;;;5.63;2.60;;;29.70;27.90;;;;;;4981556;28;20077;-92
2023/10/13 11:59:17;;;;;;;4.30;2.65;;;29.60;28.50;;;;;;4981626;28;20026;-92
2023/10/13 12:07:40;;;;;;;5.32;2.78;;;29.10;28.70;;;;;;4980640;28;20046;-91
2023/10/13 12:10:14;;;;;;;3.95;2.33;;;29.40;28.90;;;;;;4981570;28;20015;-92
2023/10/13 12:12:42;;;;;;;5.07;2.28;;;29.80;28.10;;;;;;4981267;28;20035;-91
2023/10/13 12:15:09;;;;;;;5.80;2.22;;;30.00;28.00;;;;;;4981446;28;20038;-93
2023/10/13 12:17:36;;;;;;;4.68;1.85;;;30.00;28.00;;;;;;4981985;28;20035;-92
2023/10/13 12:20:06;;;;;;;6.45;3.25;;;30.20;27.60;;;;;;4961958;28;20027;-90
2023/10/13 12:22:51;;;;;;;3.88;2.15;;;30.30;27.80;;;;;;4967340;28;20070;-90
2023/10/13 12:25:34;;;;;;;10.10;3.20;;;30.60;27.40;;;;;;4968083;28;20567;-91
2023/10/13 12:28:18;;;;;;;4.57;2.50;;;30.60;27.50;;;;;;4963839;28;20047;-93
2023/10/13 12:30:53;;;;;;;4.00;2.63;;;30.70;26.60;;;;;;4948434;28;20039;-93
2023/10/13 12:33:36;;;;;;;4.88;3.40;;;30.70;26.40;;;;;;4962983;28;20031;-93
2023/10/13 12:52:04;;;;;;;5.28;3.10;;;31.30;26.10;;;;;;4965678;28;20030;-92
2023/10/13 12:54:35;;;;;;;5.43;2.28;;;31.30;25.90;;;;;;4969337;28;20031;-90
2023/10/13 12:57:02;;;;;;;3.75;2.15;;;31.20;26.60;;;;;;4966253;28;20058;-91
2023/10/13 12:59:28;;;;;;;4.22;2.90;;;31.40;26.60;;;;;;4967981;28;20118;-92
2023/10/13 13:01:54;;;;;;;4.35;2.47;;;31.70;25.90;;;;;;4967565;28;20515;-91
2023/10/13 13:04:23;;;;;;;5.35;2.88;;;32.00;26.20;;;;;;4952272;28;20034;-91
2023/10/13 13:06:50;;;;;;;3.95;2.63;;;31.50;25.60;;;;;;4964194;28;20057;-92
2023/10/13 13:09:25;;;;;;;7.70;2.55;;;31.40;25.90;;;;;;4946513;28;20090;-93
2023/10/13 13:11:56;;;;;;;6.45;2.80;;;32.00;26.10;;;;;;4969727;28;20054;-91
2023/10/13 13:14:28;;;;;;;4.10;2.45;;;32.00;25.00;;;;;;4967320;28;20066;-93
2023/10/13 13:17:04;;;;;;;4.70;2.60;;;32.10;25.70;;;;;;4964185;28;20046;-93
2023/10/13 13:19:34;;;;;;;4.43;2.03;;;32.10;25.00;;;;;;4964650;28;20739;-92
2023/10/13 13:22:00;;;;;;;4.80;3.10;;;32.30;25.40;;;;;;4971563;28;20105;-91
2023/10/13 13:24:29;;;;;;;4.28;1.65;;;32.70;24.90;;;;;;4959195;28;20462;-92
2023/10/13 13:27:05;;;;;;;6.40;2.22;;;32.70;25.10;;;;;;4969211;28;20027;-92
2023/10/13 13:29:30;;;;;;;6.93;2.50;;;32.50;24.60;;;;;;4964707;28;20034;-92
2023/10/13 13:31:56;;;;;;;4.15;2.60;;;32.40;24.70;;;;;;4970064;28;20038;-92
2023/10/13 13:34:22;;;;;;;5.50;2.80;;;32.30;25.10;;;;;;4966859;28;20023;-92
2023/10/13 13:36:52;;;;;;;5.32;2.25;;;32.10;25.40;;;;;;4962932;28;20106;-93
2023/10/13 13:39:30;;;;;;;5.68;2.70;;;32.20;25.40;;;;;;4966678;28;20038;-91
2023/10/13 13:41:59;;;;;;;4.63;1.77;;;32.00;25.10;;;;;;4977053;28;20662;-91
2023/10/13 13:44:35;;;;;;;5.00;2.72;;;32.40;25.30;;;;;;4968694;28;20023;-94
2023/10/13 13:47:11;;;;;;;4.47;2.67;;;32.10;25.10;;;;;;4962850;28;20850;-94
2023/10/13 13:49:40;;;;;;;5.68;2.70;;;32.40;25.30;;;;;;4966392;28;20034;-93
2023/10/13 13:52:07;;;;;;;5.10;2.70;;;32.40;24.80;;;;;;4975030;28;21098;-91
2023/10/13 13:54:33;;;;;;;5.90;2.65;;;32.50;24.80;;;;;;4972162;28;20030;-92
2023/10/13 13:56:59;;;;;;;5.13;2.28;;;32.80;24.90;;;;;;4965082;28;20027;-93
2023/10/13 13:59:25;;;;;;;6.57;2.47;;;32.80;24.80;;;;;;4954956;28;20043;-92
2023/10/13 14:01:52;;;;;;;5.70;1.90;;;32.50;24.50;;;;;;4962509;28;20119;-92
2023/10/13 14:04:18;;;;;;;5.50;3.28;;;32.60;24.90;;;;;;4963759;28;20058;-94
2023/10/13 14:06:45;;;;;;;7.05;2.40;;;32.70;24.60;;;;;;4951924;28;20039;-91
2023/10/13 14:09:15;;;;;;;3.72;2.55;;;32.80;24.60;;;;;;4947715;28;20035;-90
2023/10/13 14:16:53;;;;;;;3.70;1.98;;;32.70;24.20;;;;;;4964158;28;20165;-92
2023/10/13 14:19:26;;;;;;;4.85;2.60;;;32.60;24.30;;;;;;4977849;28;20023;-94
2023/10/13 14:21:59;;;;;;;6.13;3.45;;;31.80;25.10;;;;;;4966445;28;20039;-93
2023/10/13 14:24:33;;;;;;;5.93;3.08;;;30.90;26.60;;;;;;4950384;28;20038;-94
2023/10/13 14:27:11;;;;;;;5.05;2.33;;;30.40;26.80;;;;;;4964288;28;20039;-92
2023/10/13 14:29:42;;;;;;;4.60;2.95;;;30.50;26.60;;;;;;4969822;28;21489;-91
2023/10/13 14:32:12;;;;;;;5.72;2.90;;;30.40;26.40;;;;;;4953718;28;20027;-92
2023/10/13 14:34:48;;;;;;;3.40;2.33;;;31.10;26.40;;;;;;4965813;28;20118;-92
2023/10/13 14:37:14;;;;;;;4.40;2.63;;;31.60;26.10;;;;;;4961295;28;20163;-91
2023/10/13 14:39:40;;;;;;;6.47;2.53;;;32.00;25.50;;;;;;4951605;28;20027;-91
2023/10/13 14:42:06;;;;;;;6.32;3.17;;;32.10;25.20;;;;;;4952046;28;20041;-91
2023/10/13 14:44:36;;;;;;;4.30;2.13;;;32.50;25.20;;;;;;4964675;28;20034;-92
2023/10/13 14:47:05;;;;;;;7.32;2.40;;;32.90;24.40;;;;;;4962209;28;20034;-92
2023/10/13 14:49:31;;;;;;;6.30;2.50;;;32.70;24.80;;;;;;4966710;28;20023;-91
2023/10/13 14:51:59;;;;;;;2.92;2.03;;;32.70;25.10;;;;;;4966678;28;21255;-92
2023/10/13 14:54:34;;;;;;;5.60;2.13;;;32.70;24.20;;;;;;4964563;28;20047;-92
2023/10/13 14:57:01;;;;;;;7.25;2.20;;;32.40;24.40;;;;;;4966655;28;20045;-91
2023/10/13 14:59:27;;;;;;;3.83;2.30;;;32.20;24.60;;;;;;4963710;28;20111;-90
2023/10/13 15:01:53;;;;;;;4.78;2.28;;;32.40;24.10;;;;;;4963979;28;20038;-93
2023/10/13 15:04:24;;;;;;;3.33;2.35;;;32.40;24.50;;;;;;4972457;28;20055;-92
2023/10/13 15:06:50;;;;;;;3.50;2.47;;;32.60;23.60;;;;;;4969723;28;20033;-93
2023/10/13 15:09:23;;;;;;;3.13;1.90;;;32.60;23.80;;;;;;4950325;28;20495;-93
2023/10/13 15:11:52;;;;;;;4.50;1.98;;;32.70;23.70;;;;;;4966785;28;20026;-91
2023/10/13 15:14:20;;;;;;;4.20;2.30;;;32.40;24.20;;;;;;4957618;28;20102;-93
2023/10/13 15:16:46;;;;;;;5.90;2.72;;;32.20;24.00;;;;;;4951338;28;20027;-92
2023/10/13 15:19:12;;;;;;;7.05;2.58;;;32.30;24.00;;;;;;4965104;28;20102;-94
2023/10/13 15:21:39;;;;;;;2.85;1.67;;;32.00;24.70;;;;;;4965733;28;20038;-92
2023/10/13 15:24:16;;;;;;;2.58;1.80;;;31.80;23.80;;;;;;4966143;28;20019;-92
2023/10/13 15:26:49;;;;;;;5.57;2.00;;;31.70;24.00;;;;;;4968584;28;20042;-93
2023/10/13 15:29:16;;;;;;;4.63;2.05;;;31.40;23.90;;;;;;4969089;28;20026;-93
2023/10/13 15:32:46;;;;;;;5.80;2.00;;;31.20;24.30;;;;;;4972562;28;20069;-92
2023/10/13 15:34:40;;;;;;;3.92;3.15;;;30.90;24.30;;;;;;4965583;28;20035;-91
2023/10/13 15:37:06;;;;;;;4.50;2.08;;;30.20;24.90;;;;;;4967024;28;20097;-92
2023/10/13 15:39:32;;;;;;;3.00;1.70;;;29.90;25.40;;;;;;4964639;28;20035;-93
2023/10/13 15:42:02;;;;;;;5.47;2.40;;;29.60;25.70;;;;;;4968813;28;20035;-93
2023/10/13 15:44:31;;;;;;;4.70;1.58;;;29.40;26.20;;;;;;4973168;28;20292;-93
2023/10/13 15:46:59;;;;;;;3.90;1.20;;;29.10;26.30;;;;;;4966661;28;20447;-91
2023/10/13 15:49:27;;;;;;;2.78;1.85;;;28.90;26.50;;;;;;4968931;28;20027;-94
2023/10/13 15:51:56;;;;;;;3.47;2.58;;;28.70;26.80;;;;;;4970125;28;20307;-93
2023/10/13 15:54:23;;;;;;;6.88;2.03;;;28.50;26.90;;;;;;4967531;28;20061;-93
2023/10/13 15:56:54;;;;;;;3.50;2.00;;;28.30;27.00;;;;;;4965221;28;20031;-93
2023/10/13 15:59:22;;;;;;;4.35;2.17;;;28.30;27.50;;;;;;4950561;28;20039;-92
2023/10/13 16:01:48;;;;;;;4.95;2.20;;;28.10;27.80;;;;;;4982597;28;20039;-92
2023/10/13 16:04:15;;;;;;;5.43;1.95;;;28.00;28.10;;;;;;4968533;28;20023;-93
2023/10/13 16:06:46;;;;;;;4.70;2.65;;;27.90;27.90;;;;;;4952874;28;20031;-93
2023/10/13 16:09:15;;;;;;;5.90;2.65;;;27.70;28.40;;;;;;4969640;28;20038;-94
2023/10/13 16:11:42;;;;;;;4.28;1.85;;;27.60;28.60;;;;;;4967296;28;20401;-92
2023/10/13 16:14:15;;;;;;;5.03;1.52;;;27.60;28.90;;;;;;4970114;28;20028;-93
2023/10/13 16:16:44;;;;;;;6.13;2.15;;;27.40;29.30;;;;;;4968809;28;20033;-92
2023/10/13 16:19:10;;;;;;;7.07;2.25;;;27.10;29.60;;;;;;4956423;28;20027;-93
2023/10/13 16:21:39;;;;;;;6.35;1.80;;;27.00;29.80;;;;;;4972453;28;20038;-92
2023/10/13 16:24:05;;;;;;;4.32;2.58;;;26.80;29.90;;;;;;4970777;28;20027;-92
2023/10/13 16:26:31;;;;;;;5.72;2.15;;;26.60;30.00;;;;;;4970097;28;20035;-93
2023/10/13 16:28:58;;;;;;;4.03;1.92;;;26.50;29.70;;;;;;4969183;28;20039;-93
2023/10/13 16:31:27;;;;;;;3.28;2.00;;;26.40;29.90;;;;;;4967216;28;20034;-93
2023/10/13 16:33:54;;;;;;;7.40;2.15;;;26.20;30.00;;;;;;4974494;28;20022;-93
2023/10/13 16:36:24;;;;;;;3.38;1.70;;;26.10;30.30;;;;;;4983612;28;20043;-93
2023/10/13 16:38:49;;;;;;;3.38;2.20;;;25.90;30.00;;;;;;4979177;28;20098;-92
2023/10/13 16:41:15;;;;;;;4.57;2.58;;;25.90;29.50;;;;;;4948639;29;20039;-92